Time;durP1;ratioP1;P1;durP2;ratioP2;P2;SDS_P1;SDS_P2;PMS_P1;PMS_P2;Temp;Humidity;BMP_temperature;BMP_pressure;BME280_temperature;BME280_humidity;BME280_pressure;Samples;Min_cycle;Max_cycle;Signal;HPM_P1;HPM_P2
2023/06/10 00:02:29;;;;;;;9.10;6.00;;;;;;;20.10;50.23;100627.73;105764;1271;98530;-81
2023/06/10 00:05:16;;;;;;;10.70;6.80;;;;;;;20.07;50.37;100629.02;105661;1267;97985;-82
2023/06/10 00:08:07;;;;;;;7.70;5.80;;;;;;;20.05;50.28;100626.45;105997;1267;97959;-82
2023/06/10 00:10:52;;;;;;;;;;;;;;;20.02;50.48;100630.54;105637;1269;101353;-81
2023/06/10 00:13:37;;;;;;;6.60;5.00;;;;;;;19.98;50.41;100633.69;105677;1271;99153;-83
2023/06/10 00:16:23;;;;;;;8.00;6.00;;;;;;;19.94;50.39;100631.71;105621;1271;98494;-82
2023/06/10 00:19:09;;;;;;;6.60;5.60;;;;;;;19.92;50.56;100635.38;105670;1267;98054;-82
2023/06/10 00:21:55;;;;;;;8.80;5.70;;;;;;;19.89;50.43;100633.14;105616;1270;95895;-81
2023/06/10 00:24:41;;;;;;;9.20;5.80;;;;;;;19.84;50.57;100632.36;105718;1271;103437;-83
2023/06/10 00:27:31;;;;;;;7.90;5.60;;;;;;;19.82;50.31;100629.82;105596;1271;99169;-82
2023/06/10 00:30:17;;;;;;;8.40;5.60;;;;;;;19.79;50.26;100634.61;105650;1268;97924;-82
2023/06/10 00:33:02;;;;;;;9.50;6.10;;;;;;;19.76;50.44;100634.34;105559;1267;97915;-81
2023/06/10 00:35:48;;;;;;;10.50;5.50;;;;;;;19.74;50.40;100636.80;105669;1267;97958;-82
2023/06/10 00:38:34;;;;;;;7.20;5.10;;;;;;;19.70;50.37;100636.13;105711;1268;102717;-82
2023/06/10 00:41:19;;;;;;;8.60;6.30;;;;;;;19.63;50.07;100640.68;105583;1268;100403;-82
2023/06/10 00:44:05;;;;;;;8.20;5.20;;;;;;;19.55;50.25;100641.73;105693;1267;97870;-82
2023/06/10 00:46:52;;;;;;;11.30;5.70;;;;;;;19.50;50.08;100643.12;105624;1268;97863;-82
2023/06/10 00:49:38;;;;;;;7.40;4.90;;;;;;;19.46;49.92;100645.22;105789;1268;97949;-82
2023/06/10 00:52:28;;;;;;;16.00;5.10;;;;;;;19.42;49.89;100647.96;105724;1271;103125;-81
2023/06/10 00:55:17;;;;;;;6.80;5.00;;;;;;;19.37;49.83;100652.37;105639;1271;99108;-81
2023/06/10 00:58:04;;;;;;;7.30;5.30;;;;;;;19.34;49.76;100650.54;105655;1267;99063;-81
2023/06/10 01:00:49;;;;;;;6.70;5.20;;;;;;;19.29;49.57;100651.16;105674;1268;99277;-82
2023/06/10 01:03:36;;;;;;;7.40;4.90;;;;;;;19.25;49.15;100654.68;105691;1267;98851;-83
2023/06/10 01:06:57;;;;;;;13.40;4.90;;;;;;;19.23;49.27;100654.91;105756;1273;102763;-83
2023/06/10 01:09:56;;;;;;;6.50;4.70;;;;;;;19.19;48.89;100652.15;105664;1271;100268;-82
2023/06/10 01:12:52;;;;;;;8.20;4.50;;;;;;;19.14;48.67;100649.95;105625;1268;97984;-82
2023/06/10 01:15:40;;;;;;;8.30;4.70;;;;;;;19.09;48.64;100646.96;105579;1273;98083;-83
2023/06/10 01:18:32;;;;;;;5.80;5.00;;;;;;;19.06;48.69;100648.58;105614;1267;97979;-82
2023/06/10 01:21:27;;;;;;;7.30;4.60;;;;;;;19.04;48.68;100650.33;105572;1271;102663;-82
2023/06/10 01:24:13;;;;;;;9.50;5.00;;;;;;;18.98;48.46;100647.23;105511;1271;99869;-82
2023/06/10 01:27:01;;;;;;;8.10;5.60;;;;;;;18.95;48.50;100651.06;105600;1272;98903;-82
2023/06/10 01:29:54;;;;;;;15.80;5.20;;;;;;;18.89;48.73;100651.60;105497;1271;97969;-83
2023/06/10 01:32:46;;;;;;;10.40;5.30;;;;;;;18.83;48.70;100655.42;105607;1270;97958;-82
2023/06/10 01:35:37;;;;;;;10.00;5.10;;;;;;;18.80;48.76;100661.00;105589;1268;102647;-83
2023/06/10 01:38:25;;;;;;;9.00;5.30;;;;;;;18.76;48.71;100661.48;105594;1271;100429;-83
2023/06/10 01:41:13;;;;;;;5.80;4.50;;;;;;;18.72;48.83;100661.80;105589;1269;98781;-82
2023/06/10 01:43:59;;;;;;;8.40;4.70;;;;;;;18.68;48.82;100663.12;105566;1270;97885;-81
2023/06/10 01:46:45;;;;;;;8.40;5.10;;;;;;;18.63;48.82;100664.71;105565;1268;97996;-82
2023/06/10 01:49:30;;;;;;;13.10;4.70;;;;;;;18.58;48.91;100670.23;105633;1268;102641;-81
2023/06/10 01:52:16;;;;;;;12.50;5.60;;;;;;;18.55;49.01;100670.65;105614;1271;100161;-82
2023/06/10 01:55:02;;;;;;;9.90;5.00;;;;;;;18.51;49.09;100671.64;105616;1271;98993;-81
2023/06/10 01:57:48;;;;;;;13.40;5.20;;;;;;;18.48;49.35;100673.36;105608;1267;97955;-82
2023/06/10 02:00:33;;;;;;;7.40;4.70;;;;;;;18.42;49.49;100673.77;105472;1271;97989;-82
2023/06/10 02:03:20;;;;;;;8.70;4.90;;;;;;;18.38;49.61;100678.48;105519;1268;111231;-82
2023/06/10 02:06:06;;;;;;;7.10;4.90;;;;;;;18.32;49.77;100681.65;105568;1268;99276;-82
2023/06/10 02:08:52;;;;;;;10.80;5.20;;;;;;;18.28;50.02;100684.80;105594;1271;98052;-82
2023/06/10 02:11:37;;;;;;;10.30;4.50;;;;;;;18.26;50.21;100687.36;105538;1271;97978;-82
2023/06/10 02:14:23;;;;;;;12.00;4.70;;;;;;;18.21;50.05;100691.69;105553;1267;98012;-82
2023/06/10 02:17:12;;;;;;;9.20;5.30;;;;;;;18.17;50.41;100692.30;105517;1268;102689;-83
2023/06/10 02:19:59;;;;;;;8.00;4.40;;;;;;;18.13;50.61;100692.66;105543;1270;99800;-83
2023/06/10 02:22:44;;;;;;;8.40;5.00;;;;;;;18.06;50.97;100693.36;105560;1268;97923;-82
2023/06/10 02:25:30;;;;;;;10.40;4.50;;;;;;;17.99;51.28;100692.38;105473;1271;97944;-83
2023/06/10 02:28:16;;;;;;;12.40;4.80;;;;;;;17.96;51.54;100692.02;105596;1273;98426;-82
2023/06/10 02:31:02;;;;;;;9.60;4.60;;;;;;;17.94;51.65;100691.96;105472;1269;102524;-82
2023/06/10 02:33:48;;;;;;;10.50;4.90;;;;;;;17.90;51.83;100690.23;105535;1268;99176;-82
2023/06/10 02:36:35;;;;;;;16.00;4.90;;;;;;;17.85;51.96;100691.57;105389;1273;98918;-82
2023/06/10 02:39:22;;;;;;;8.60;5.10;;;;;;;17.81;52.19;100692.67;105378;1268;97852;-82
2023/06/10 02:42:08;;;;;;;9.80;5.40;;;;;;;17.79;52.38;100695.12;105475;1271;99669;-82
2023/06/10 02:44:54;;;;;;;10.40;4.80;;;;;;;17.78;52.48;100695.88;105515;1271;102712;-82
2023/06/10 02:47:52;;;;;;;8.60;5.20;;;;;;;17.77;52.74;100696.06;105487;1267;99110;-82
2023/06/10 02:50:40;;;;;;;8.40;4.90;;;;;;;17.75;52.96;100694.23;105480;1271;98402;-82
2023/06/10 02:53:39;;;;;;;6.20;4.40;;;;;;;17.66;53.12;100702.09;105356;1268;98013;-83
2023/06/10 02:56:28;;;;;;;7.40;4.70;;;;;;;17.60;53.50;100701.14;105587;1273;99529;-82
2023/06/10 02:59:15;;;;;;;14.50;5.30;;;;;;;17.54;53.80;100704.90;105505;1267;101346;-81
2023/06/10 03:02:01;;;;;;;10.00;5.40;;;;;;;17.51;54.11;100704.59;105401;1268;99115;-81
2023/06/10 03:04:50;;;;;;;12.00;5.40;;;;;;;17.47;54.43;100703.70;105517;1268;98012;-83
2023/06/10 03:07:37;;;;;;;8.60;4.80;;;;;;;17.45;54.52;100701.78;105288;1273;98128;-81
2023/06/10 03:10:22;;;;;;;5.90;4.70;;;;;;;17.45;54.74;100707.44;105390;1270;98444;-82
2023/06/10 03:13:09;;;;;;;8.10;4.80;;;;;;;17.45;54.96;100708.36;105499;1272;102053;-83
2023/06/10 03:15:56;;;;;;;9.50;5.10;;;;;;;17.46;55.07;100710.18;105403;1268;99118;-82
2023/06/10 03:18:42;;;;;;;6.70;5.00;;;;;;;17.48;55.25;100707.58;105382;1273;97889;-83
2023/06/10 03:21:27;;;;;;;10.00;5.00;;;;;;;17.49;55.40;100711.73;105370;1273;98609;-82
2023/06/10 03:24:15;;;;;;;7.90;5.30;;;;;;;17.50;55.86;100711.06;105457;1268;97883;-83
2023/06/10 03:27:01;;;;;;;15.70;4.80;;;;;;;17.51;55.91;100711.27;105392;1268;102656;-83
2023/06/10 03:29:47;;;;;;;10.00;4.70;;;;;;;17.53;56.10;100713.27;105197;1268;100144;-83
2023/06/10 03:32:35;;;;;;;11.00;5.80;;;;;;;17.55;56.10;100717.17;105405;1273;98986;-81
2023/06/10 03:35:22;;;;;;;9.10;5.10;;;;;;;17.58;56.40;100718.92;105277;1273;98565;-81
2023/06/10 03:38:08;;;;;;;7.80;5.20;;;;;;;17.63;56.55;100719.77;105458;1268;98416;-80
2023/06/10 03:40:54;;;;;;;7.80;4.50;;;;;;;17.67;56.50;100723.79;105318;1268;101385;-81
2023/06/10 03:43:40;;;;;;;10.50;5.20;;;;;;;17.74;56.76;100726.95;105298;1268;100117;-82
2023/06/10 03:46:26;;;;;;;9.60;4.60;;;;;;;17.78;56.79;100727.31;105511;1268;98369;-82
2023/06/10 03:49:12;;;;;;;11.80;4.80;;;;;;;17.81;56.87;100728.27;105486;1267;98858;-82
2023/06/10 03:51:58;;;;;;;8.20;4.30;;;;;;;17.84;57.22;100732.52;105423;1270;97882;-83
2023/06/10 03:54:44;;;;;;;7.90;5.00;;;;;;;17.86;57.11;100733.23;105442;1267;101912;-83
2023/06/10 03:57:30;;;;;;;9.20;5.20;;;;;;;17.90;57.31;100733.34;105497;1271;100391;-83
2023/06/10 04:00:17;;;;;;;8.20;4.80;;;;;;;17.96;57.38;100735.88;105346;1267;97987;-82
2023/06/10 04:03:03;;;;;;;9.00;4.90;;;;;;;18.01;57.40;100741.94;105232;1267;97906;-83
2023/06/10 04:05:54;;;;;;;9.70;5.20;;;;;;;18.07;57.43;100735.83;105393;1271;97976;-81
2023/06/10 04:08:40;;;;;;;8.20;5.10;;;;;;;18.14;57.67;100732.60;105459;1268;102754;-82
2023/06/10 04:11:26;;;;;;;9.50;4.80;;;;;;;18.22;57.73;100735.52;105463;1269;99109;-81
2023/06/10 04:14:13;;;;;;;10.90;5.40;;;;;;;18.29;57.75;100738.36;105171;1268;98008;-82
2023/06/10 04:16:59;;;;;;;7.30;4.80;;;;;;;18.34;57.72;100738.36;105289;1270;97895;-81
2023/06/10 04:19:45;;;;;;;10.80;5.10;;;;;;;18.41;57.80;100739.25;105346;1271;98574;-81
2023/06/10 04:22:32;;;;;;;8.00;4.70;;;;;;;18.49;57.90;100745.16;105322;1271;101604;-81
2023/06/10 04:25:17;;;;;;;12.40;5.60;;;;;;;18.53;57.95;100752.14;105312;1268;99129;-83
2023/06/10 04:28:04;;;;;;;11.80;4.60;;;;;;;18.58;57.94;100753.63;105332;1271;99211;-81
2023/06/10 04:30:50;;;;;;;10.40;4.70;;;;;;;18.63;57.99;100752.50;105200;1268;98398;-83
2023/06/10 04:33:35;;;;;;;6.60;4.30;;;;;;;18.70;58.28;100754.66;105320;1273;98022;-82
2023/06/10 04:36:21;;;;;;;9.60;4.70;;;;;;;18.75;58.14;100754.09;105187;1267;101361;-83
2023/06/10 04:39:07;;;;;;;7.80;4.70;;;;;;;18.79;58.20;100759.02;105378;1273;99311;-82
2023/06/10 04:41:54;;;;;;;8.30;4.70;;;;;;;18.82;57.88;100762.78;105358;1270;97955;-84
2023/06/10 04:44:40;;;;;;;10.80;5.00;;;;;;;18.84;58.03;100759.14;105334;1271;97977;-84
2023/06/10 04:47:26;;;;;;;9.50;4.80;;;;;;;18.91;58.31;100757.02;105405;1268;97987;-84
2023/06/10 04:50:12;;;;;;;16.20;5.10;;;;;;;18.96;58.16;100754.95;105273;1271;101465;-82
2023/06/10 04:52:57;;;;;;;7.00;5.00;;;;;;;18.99;57.97;100757.67;105295;1269;100772;-82
2023/06/10 04:55:43;;;;;;;7.60;4.20;;;;;;;19.02;57.91;100761.81;105217;1268;97991;-83
2023/06/10 04:58:30;;;;;;;8.70;4.80;;;;;;;19.07;58.10;100760.47;105340;1273;98005;-83
2023/06/10 05:01:15;;;;;;;11.30;4.80;;;;;;;19.13;58.15;100761.09;105391;1267;99293;-82
2023/06/10 05:04:01;;;;;;;10.00;4.60;;;;;;;19.19;58.20;100761.98;105286;1268;101381;-83
2023/06/10 05:06:47;;;;;;;11.00;5.00;;;;;;;19.26;58.19;100765.65;105390;1270;100610;-83
2023/06/10 05:09:32;;;;;;;9.30;4.50;;;;;;;19.35;58.75;100765.38;105443;1271;98035;-83
2023/06/10 05:12:18;;;;;;;7.30;4.60;;;;;;;19.44;58.34;100767.65;105379;1271;98880;-82
2023/06/10 05:15:04;;;;;;;8.80;5.00;;;;;;;19.49;57.94;100768.92;105300;1274;99677;-82
2023/06/10 05:17:50;;;;;;;12.40;5.60;;;;;;;19.53;58.08;100769.84;105325;1273;101355;-83
2023/06/10 05:20:35;;;;;;;9.20;5.20;;;;;;;19.60;58.03;100774.77;105293;1267;99125;-83
2023/06/10 05:23:21;;;;;;;11.00;4.50;;;;;;;19.65;58.12;100776.02;105239;1274;98819;-84
2023/06/10 05:26:07;;;;;;;8.20;4.40;;;;;;;19.73;58.19;100777.19;105227;1273;98087;-82
2023/06/10 05:28:52;;;;;;;7.70;5.00;;;;;;;19.81;58.13;100775.70;105276;1267;98962;-82
2023/06/10 05:31:38;;;;;;;12.70;5.10;;;;;;;19.89;57.85;100773.98;105253;1268;103239;-83
2023/06/10 05:34:23;;;;;;;8.30;4.40;;;;;;;19.94;57.78;100775.87;105472;1267;99548;-84
2023/06/10 05:37:09;;;;;;;11.10;4.80;;;;;;;19.98;57.31;100774.91;105373;1273;97984;-83
2023/06/10 05:39:54;;;;;;;8.20;5.00;;;;;;;20.04;57.55;100771.54;105298;1270;98015;-82
2023/06/10 05:42:40;;;;;;;14.60;4.90;;;;;;;20.11;57.36;100772.70;105274;1267;97826;-81
2023/06/10 05:45:27;;;;;;;7.20;4.50;;;;;;;20.13;56.74;100773.23;105406;1270;101957;-83
2023/06/10 05:48:12;;;;;;;8.30;4.70;;;;;;;20.14;56.93;100777.09;105347;1271;99119;-83
2023/06/10 05:50:58;;;;;;;13.30;4.60;;;;;;;20.12;56.84;100777.55;105131;1274;97982;-84
2023/06/10 05:53:43;;;;;;;10.90;4.40;;;;;;;20.18;56.72;100777.17;105299;1274;98736;-83
2023/06/10 05:56:29;;;;;;;9.80;5.10;;;;;;;20.26;56.72;100774.75;106011;1271;96240;-83
2023/06/10 05:59:14;;;;;;;11.30;4.20;;;;;;;20.35;56.77;100776.08;105480;1271;103076;-83
2023/06/10 06:02:00;;;;;;;6.00;4.30;;;;;;;20.46;56.87;100776.22;105494;1271;99165;-81
2023/06/10 06:04:46;;;;;;;8.20;5.10;;;;;;;20.57;56.29;100780.32;105396;1267;98067;-82
2023/06/10 06:07:32;;;;;;;8.20;4.60;;;;;;;20.65;56.18;100777.50;105292;1273;97984;-82
2023/06/10 06:10:18;;;;;;;9.70;5.20;;;;;;;20.75;56.30;100782.29;105321;1271;98033;-83
2023/06/10 06:13:04;;;;;;;7.40;4.60;;;;;;;20.80;55.80;100779.54;105231;1269;101368;-84
2023/06/10 06:15:50;;;;;;;11.20;4.80;;;;;;;20.87;55.60;100774.09;105165;1273;99692;-83
2023/06/10 06:18:35;;;;;;;11.60;5.00;;;;;;;20.95;55.87;100774.66;104963;1268;107638;-83
2023/06/10 06:21:20;;;;;;;6.60;4.30;;;;;;;21.02;55.57;100775.63;105106;1273;97906;-84
2023/06/10 06:24:06;;;;;;;9.60;5.00;;;;;;;21.06;55.31;100775.98;105102;1268;97968;-82
2023/06/10 06:26:51;;;;;;;12.10;5.70;;;;;;;21.13;55.41;100774.99;105091;1267;101335;-82
2023/06/10 06:29:37;;;;;;;11.60;5.00;;;;;;;21.20;55.10;100773.61;105141;1271;100401;-83
2023/06/10 06:32:24;;;;;;;14.80;5.50;;;;;;;21.28;55.37;100775.52;105206;1273;98071;-84
2023/06/10 06:35:10;;;;;;;7.80;4.50;;;;;;;21.36;54.85;100774.03;105204;1267;98845;-81
2023/06/10 06:37:56;;;;;;;7.80;4.80;;;;;;;21.43;54.91;100777.19;105274;1268;98362;-83
2023/06/10 06:40:44;;;;;;;7.60;4.60;;;;;;;21.46;54.60;100786.38;105290;1273;101377;-82
2023/06/10 06:43:33;;;;;;;11.60;4.90;;;;;;;21.49;54.94;100787.11;105532;1267;99184;-81
2023/06/10 06:46:37;;;;;;;8.00;5.00;;;;;;;21.57;54.99;100792.35;105461;1267;98990;-82
2023/06/10 06:49:22;;;;;;;12.20;4.90;;;;;;;21.68;55.23;100788.34;105499;1273;98072;-82
2023/06/10 06:52:08;;;;;;;11.90;4.90;;;;;;;21.77;54.16;100791.16;105511;1267;97970;-83
2023/06/10 06:54:54;;;;;;;10.20;5.70;;;;;;;21.81;53.79;100793.02;105390;1270;101360;-83
2023/06/10 06:57:39;;;;;;;8.70;4.40;;;;;;;21.83;53.55;100792.56;105601;1270;99095;-82
2023/06/10 07:00:25;;;;;;;12.40;4.90;;;;;;;21.85;53.34;100795.06;105211;1276;98036;-82
2023/06/10 07:03:11;;;;;;;7.30;4.90;;;;;;;21.92;53.54;100800.11;105563;1273;98532;-81
2023/06/10 07:05:56;;;;;;;6.90;4.70;;;;;;;22.01;53.38;100800.48;105569;1267;98019;-80
2023/06/10 07:08:41;;;;;;;6.10;4.80;;;;;;;22.09;53.20;100802.26;105507;1267;101355;-83
2023/06/10 07:11:27;;;;;;;6.40;4.60;;;;;;;22.19;53.28;100803.86;105526;1271;99272;-83
2023/06/10 07:14:13;;;;;;;8.80;4.90;;;;;;;22.30;52.82;100806.05;105450;1267;97926;-83
2023/06/10 07:16:59;;;;;;;8.70;5.00;;;;;;;22.39;52.91;100808.70;105482;1271;98142;-83
2023/06/10 07:19:45;;;;;;;6.50;4.80;;;;;;;22.43;52.58;100807.88;105455;1273;98488;-81
2023/06/10 07:22:31;;;;;;;10.60;4.70;;;;;;;22.43;52.57;100808.58;105482;1267;101346;-82
2023/06/10 07:25:16;;;;;;;7.90;4.90;;;;;;;22.45;52.82;100810.29;105526;1274;99332;-83
2023/06/10 07:28:02;;;;;;;8.20;4.40;;;;;;;22.54;52.62;100808.83;105531;1267;98020;-83
2023/06/10 07:30:48;;;;;;;7.30;4.50;;;;;;;22.62;52.47;100812.05;105309;1276;97966;-83
2023/06/10 07:33:33;;;;;;;10.90;4.70;;;;;;;22.70;52.42;100815.02;105407;1274;98580;-83
2023/06/10 07:36:18;;;;;;;8.80;4.80;;;;;;;22.77;52.17;100818.08;105401;1267;102294;-82
2023/06/10 07:39:04;;;;;;;8.00;4.60;;;;;;;22.78;51.31;100818.35;105466;1273;99844;-81
2023/06/10 07:41:52;;;;;;;7.90;5.60;;;;;;;22.70;50.75;100823.75;105518;1274;106389;-84
2023/06/10 07:44:37;;;;;;;6.10;4.50;;;;;;;22.63;50.97;100819.88;105549;1274;97994;-83
2023/06/10 07:47:23;;;;;;;5.30;4.10;;;;;;;22.58;50.65;100822.70;105547;1268;97878;-84
2023/06/10 07:50:09;;;;;;;6.80;5.00;;;;;;;22.52;50.61;100823.78;105544;1273;101842;-83
2023/06/10 07:52:54;;;;;;;10.00;4.50;;;;;;;22.54;51.34;100822.88;105433;1271;100497;-82
2023/06/10 07:55:40;;;;;;;8.40;4.20;;;;;;;22.61;51.19;100817.34;105616;1274;98989;-84
2023/06/10 07:58:25;;;;;;;8.20;4.60;;;;;;;22.68;50.62;100819.31;105607;1267;98096;-83
2023/06/10 08:01:11;;;;;;;9.90;4.40;;;;;;;22.72;50.42;100817.54;105628;1272;98619;-83
2023/06/10 08:03:56;;;;;;;9.30;4.80;;;;;;;22.82;50.96;100822.36;105593;1274;101356;-83
2023/06/10 08:06:42;;;;;;;7.30;5.10;;;;;;;22.89;50.06;100824.51;105447;1269;99106;-84
2023/06/10 08:09:28;;;;;;;5.10;3.90;;;;;;;22.96;50.18;100824.94;105328;1267;97933;-83
2023/06/10 08:12:14;;;;;;;8.00;4.40;;;;;;;23.08;50.28;100821.63;105317;1274;97958;-83
2023/06/10 08:15:01;;;;;;;6.70;3.70;;;;;;;23.17;48.87;100827.80;105312;1269;98515;-81
2023/06/10 08:17:47;;;;;;;7.90;4.30;;;;;;;23.17;48.75;100826.66;105292;1273;101362;-83
2023/06/10 08:20:32;;;;;;;5.20;4.00;;;;;;;23.20;48.54;100826.69;105321;1273;99140;-84
2023/06/10 08:23:19;;;;;;;7.90;4.00;;;;;;;23.18;47.94;100830.55;105406;1273;99950;-81
2023/06/10 08:26:04;;;;;;;6.60;4.20;;;;;;;23.17;47.94;100833.16;105559;1271;97911;-82
2023/06/10 08:28:50;;;;;;;10.70;4.50;;;;;;;23.20;47.89;100837.94;105483;1276;99060;-83
2023/06/10 08:31:35;;;;;;;5.90;4.30;;;;;;;23.27;47.76;100832.13;105656;1267;101928;-80
2023/06/10 08:34:20;;;;;;;10.70;4.60;;;;;;;23.35;47.74;100832.86;105579;1271;100753;-82
2023/06/10 08:37:06;;;;;;;13.80;4.70;;;;;;;23.40;47.09;100841.48;105380;1267;97988;-83
2023/06/10 08:39:51;;;;;;;10.40;4.70;;;;;;;23.35;46.14;100841.77;105438;1274;97894;-82
2023/06/10 08:42:48;;;;;;;5.40;3.90;;;;;;;23.33;46.10;100841.27;105326;1272;99030;-81
2023/06/10 08:45:36;;;;;;;6.10;4.20;;;;;;;23.39;46.29;100831.58;105421;1267;102122;-81
2023/06/10 08:48:22;;;;;;;8.10;4.10;;;;;;;23.47;45.55;100834.69;105845;1267;99850;-92
2023/06/10 08:51:11;;;;;;;6.40;4.00;;;;;;;23.48;45.66;100836.66;105863;1273;98974;-88
2023/06/10 08:54:05;;;;;;;7.90;4.10;;;;;;;23.52;45.68;100836.73;105302;1267;97992;-81
2023/06/10 08:56:54;;;;;;;6.60;4.10;;;;;;;23.58;45.57;100837.96;105564;1272;98083;-81
2023/06/10 08:59:40;;;;;;;8.30;4.20;;;;;;;23.64;45.84;100837.45;105560;1275;101359;-83
2023/06/10 09:02:27;;;;;;;7.30;3.40;;;;;;;23.71;45.56;100840.33;105501;1268;99097;-80
2023/06/10 09:05:13;;;;;;;6.10;3.70;;;;;;;23.71;44.79;100839.02;105305;1271;99025;-84
2023/06/10 09:08:00;;;;;;;9.50;3.60;;;;;;;23.77;44.79;100832.35;105296;1267;98070;-82
2023/06/10 09:10:47;;;;;;;5.40;3.80;;;;;;;23.89;44.84;100830.59;105407;1268;99273;-80
2023/06/10 09:13:32;;;;;;;7.30;3.90;;;;;;;24.00;44.65;100830.73;105486;1267;101434;-82
2023/06/10 09:16:18;;;;;;;19.90;4.20;;;;;;;24.06;44.13;100833.18;105371;1275;99252;-84
2023/06/10 09:19:07;;;;;;;13.90;4.10;;;;;;;24.13;44.21;100835.95;105263;1271;98045;-86
2023/06/10 09:21:53;;;;;;;11.90;3.30;;;;;;;24.24;44.12;100837.39;105240;1267;99317;-86
2023/06/10 09:24:40;;;;;;;11.20;3.60;;;;;;;24.28;43.02;100835.55;105412;1270;98165;-90
2023/06/10 09:27:29;;;;;;;11.00;3.80;;;;;;;24.28;42.80;100834.34;105362;1267;102684;-83
2023/06/10 09:30:26;;;;;;;8.70;3.70;;;;;;;24.33;43.32;100835.60;105250;1267;99256;-84
2023/06/10 09:33:15;;;;;;;8.20;3.70;;;;;;;24.32;43.26;100834.91;105156;1276;97964;-84
2023/06/10 09:36:02;;;;;;;5.90;3.30;;;;;;;24.30;42.04;100837.90;105160;1267;98092;-86
2023/06/10 09:38:50;;;;;;;7.00;3.40;;;;;;;24.27;41.47;100840.52;105227;1275;98417;-81
2023/06/10 09:41:41;;;;;;;6.80;4.10;;;;;;;24.23;41.36;100836.31;105065;1276;101425;-85
2023/06/10 09:44:27;;;;;;;7.70;3.90;;;;;;;24.23;41.70;100830.28;105183;1274;100366;-82
2023/06/10 09:47:22;;;;;;;8.50;3.40;;;;;;;24.31;41.79;100828.59;105231;1267;98026;-88
2023/06/10 09:50:08;;;;;;;7.80;3.60;;;;;;;24.40;41.42;100828.60;105366;1267;98118;-84
2023/06/10 09:52:53;;;;;;;11.00;4.10;;;;;;;24.48;41.30;100823.20;105265;1273;98527;-82
2023/06/10 09:55:39;;;;;;;7.70;3.60;;;;;;;24.57;41.19;100820.46;105424;1267;101380;-80
2023/06/10 09:58:36;;;;;;;6.30;3.40;;;;;;;24.65;41.15;100817.61;105715;1267;99000;-81
2023/06/10 10:01:22;;;;;;;7.80;4.00;;;;;;;24.68;40.46;100816.02;105533;1271;98003;-84
2023/06/10 10:04:07;;;;;;;6.10;4.10;;;;;;;24.68;40.59;100817.55;105692;1267;97993;-90
2023/06/10 10:06:53;;;;;;;8.30;3.50;;;;;;;24.74;40.66;100814.34;105585;1269;97880;-88
2023/06/10 10:09:40;;;;;;;7.70;3.60;;;;;;;24.82;40.61;100811.95;105552;1267;102165;-85
2023/06/10 10:12:26;;;;;;;4.70;3.70;;;;;;;24.90;40.92;100810.23;105378;1273;100124;-87
2023/06/10 10:15:12;;;;;;;10.00;3.70;;;;;;;24.98;40.32;100812.30;105745;1267;97991;-90
2023/06/10 10:18:09;;;;;;;6.30;3.20;;;;;;;25.02;39.88;100811.38;105558;1274;97973;-89
2023/06/10 10:20:55;;;;;;;8.50;4.00;;;;;;;25.07;39.71;100810.59;105779;1272;98007;-81
2023/06/10 10:24:05;;;;;;;5.20;3.30;;;;;;;25.11;39.24;100803.83;105436;1273;101407;-86
2023/06/10 10:26:58;;;;;;;6.10;3.60;;;;;;;25.15;39.46;100809.31;105412;1267;108837;-84
2023/06/10 10:29:48;;;;;;;5.50;3.50;;;;;;;25.22;39.38;100808.20;105288;1267;99003;-86
2023/06/10 10:33:04;;;;;;;4.20;3.40;;;;;;;25.33;39.39;100808.95;105355;1267;98686;-85
2023/06/10 10:35:51;;;;;;;7.80;3.10;;;;;;;25.44;38.67;100811.95;105344;1267;98437;-84
2023/06/10 10:38:37;;;;;;;6.20;4.10;;;;;;;25.48;38.79;100812.43;105425;1267;101379;-86
2023/06/10 10:41:27;;;;;;;5.80;3.40;;;;;;;25.51;38.09;100814.28;105605;1267;99006;-86
2023/06/10 10:44:14;;;;;;;6.80;3.50;;;;;;;25.54;37.89;100813.99;105594;1267;98172;-85
2023/06/10 10:47:04;;;;;;;5.50;3.90;;;;;;;25.62;37.19;100814.73;105434;1273;97972;-85
2023/06/10 10:49:54;;;;;;;4.50;3.40;;;;;;;25.65;37.27;100814.83;105459;1270;97927;-85
2023/06/10 10:52:55;;;;;;;5.50;3.50;;;;;;;25.70;37.31;100818.77;105319;1267;102612;-86
2023/06/10 10:55:41;;;;;;;5.50;4.30;;;;;;;25.78;37.64;100820.20;105243;1275;99108;-85
2023/06/10 10:58:27;;;;;;;3.90;3.30;;;;;;;25.81;36.36;100825.29;105470;1267;99088;-81
2023/06/10 11:01:14;;;;;;;6.60;3.50;;;;;;;25.75;34.63;100825.05;105432;1267;97973;-86
2023/06/10 11:04:00;;;;;;;6.30;3.50;;;;;;;25.62;33.33;100826.31;105333;1274;98044;-82
2023/06/10 11:06:53;;;;;;;7.80;3.30;;;;;;;25.53;32.60;100819.55;105593;1267;101352;-83
2023/06/10 11:10:07;;;;;;;5.00;3.30;;;;;;;25.52;32.79;100822.02;105591;1267;100461;-82
2023/06/10 11:12:54;;;;;;;6.80;3.10;;;;;;;25.56;32.98;100815.25;105700;1268;98020;-82
2023/06/10 11:15:44;;;;;;;5.00;3.30;;;;;;;25.60;33.04;100815.52;105677;1267;97907;-82
2023/06/10 11:18:32;;;;;;;3.70;3.10;;;;;;;25.68;33.55;100811.70;105710;1270;98031;-82
2023/06/10 11:21:18;;;;;;;4.10;2.90;;;;;;;25.79;33.95;100808.73;105644;1267;101461;-81
2023/06/10 11:24:15;;;;;;;6.40;2.90;;;;;;;25.84;33.67;100805.29;105304;1267;100358;-80
2023/06/10 11:27:24;;;;;;;6.30;3.50;;;;;;;25.83;34.13;100805.85;105460;1267;99167;-80
2023/06/10 11:30:19;;;;;;;5.80;3.40;;;;;;;25.89;34.40;100800.83;105139;1273;97981;-84
2023/06/10 11:33:05;;;;;;;6.80;3.30;;;;;;;25.99;34.68;100802.20;105556;1271;98613;-85
2023/06/10 11:35:50;;;;;;;4.80;3.60;;;;;;;26.05;34.36;100800.41;105142;1272;102247;-87
2023/06/10 11:38:36;;;;;;;7.40;3.20;;;;;;;26.08;34.34;100796.55;105320;1267;99155;-85
2023/06/10 11:41:25;;;;;;;6.90;3.60;;;;;;;25.95;32.93;100802.21;105385;1267;99246;-85
2023/06/10 11:44:13;;;;;;;6.60;3.00;;;;;;;25.78;32.49;100799.35;105234;1267;98031;-82
2023/06/10 11:46:59;;;;;;;5.40;3.60;;;;;;;25.68;32.13;100792.15;105366;1273;97892;-84
2023/06/10 11:49:45;;;;;;;7.00;3.20;;;;;;;25.71;32.01;100796.15;105387;1267;102641;-83
2023/06/10 11:52:33;;;;;;;5.40;3.10;;;;;;;25.71;31.72;100798.39;105529;1267;100441;-86
2023/06/10 11:55:19;;;;;;;4.20;3.30;;;;;;;25.66;30.77;100798.46;105128;1267;99015;-86
2023/06/10 11:58:04;;;;;;;7.70;3.80;;;;;;;25.61;31.18;100794.42;105444;1267;98069;-84
2023/06/10 12:00:58;;;;;;;7.30;3.50;;;;;;;25.73;31.97;100787.24;105323;1270;99690;-85
2023/06/10 12:03:44;;;;;;;5.50;3.00;;;;;;;25.91;32.33;100785.50;105196;1276;101377;-83
2023/06/10 12:06:43;;;;;;;6.80;3.40;;;;;;;26.04;32.30;100786.58;105142;1267;99858;-82
2023/06/10 12:09:30;;;;;;;7.00;3.20;;;;;;;26.08;32.61;100785.37;105086;1267;98354;-83
2023/06/10 12:12:17;;;;;;;4.70;3.20;;;;;;;26.16;32.70;100787.58;105545;1267;98028;-85
2023/06/10 12:15:04;;;;;;;7.40;3.90;;;;;;;26.22;32.18;100788.58;105385;1272;97911;-86
2023/06/10 12:17:50;;;;;;;7.10;3.50;;;;;;;26.28;32.09;100787.33;105210;1272;101229;-84
2023/06/10 12:20:36;;;;;;;6.70;3.20;;;;;;;26.35;31.33;100789.85;105346;1271;100381;-88
2023/06/10 12:23:22;;;;;;;5.70;3.30;;;;;;;26.35;31.00;100792.27;105043;1276;99045;-86
2023/06/10 12:26:08;;;;;;;5.90;3.40;;;;;;;26.29;30.57;100782.64;105291;1267;97970;-85
2023/06/10 12:28:54;;;;;;;6.90;3.40;;;;;;;26.18;30.90;100784.98;105397;1267;96827;-82
2023/06/10 12:31:53;;;;;;;4.20;3.50;;;;;;;26.18;31.08;100775.52;105281;1271;103159;-82
2023/06/10 12:34:40;;;;;;;4.60;3.20;;;;;;;26.26;31.33;100776.39;105235;1273;99924;-82
2023/06/10 12:37:25;;;;;;;4.30;3.80;;;;;;;26.24;31.31;100783.12;105317;1267;97934;-82
2023/06/10 12:40:13;;;;;;;6.70;3.80;;;;;;;26.15;30.85;100781.32;105482;1267;97984;-83
2023/06/10 12:42:59;;;;;;;6.10;3.70;;;;;;;26.07;31.24;100780.30;105349;1268;99578;-84
2023/06/10 12:45:45;;;;;;;7.70;3.60;;;;;;;26.07;31.30;100773.59;105379;1273;101428;-82
2023/06/10 12:48:30;;;;;;;6.00;3.70;;;;;;;26.08;31.37;100772.46;105389;1267;99063;-82